sensor_id;sensor_type;location;lat;lon;timestamp;P1;durP1;ratioP1;P2;durP2;ratioP2
7703;SDS011;3894;49.700;10.770;2023-03-03T01:13:00;18.33;;;8.07;;
7703;SDS011;3894;49.700;10.770;2023-03-03T01:15:45;19.30;;;8.02;;
7703;SDS011;3894;49.700;10.770;2023-03-03T01:21:34;22.40;;;8.02;;
7703;SDS011;3894;49.700;10.770;2023-03-03T01:27:32;20.20;;;7.90;;
7703;SDS011;3894;49.700;10.770;2023-03-03T01:30:15;22.63;;;7.95;;
7703;SDS011;3894;49.700;10.770;2023-03-03T01:33:15;24.20;;;7.80;;
7703;SDS011;3894;49.700;10.770;2023-03-03T01:36:12;21.73;;;8.07;;
7703;SDS011;3894;49.700;10.770;2023-03-03T01:38:52;21.80;;;7.60;;
7703;SDS011;3894;49.700;10.770;2023-03-03T01:41:47;15.40;;;6.47;;
7703;SDS011;3894;49.700;10.770;2023-03-03T01:44:44;17.63;;;7.38;;
7703;SDS011;3894;49.700;10.770;2023-03-03T01:47:31;19.25;;;7.75;;
7703;SDS011;3894;49.700;10.770;2023-03-03T01:53:13;18.88;;;8.07;;
7703;SDS011;3894;49.700;10.770;2023-03-03T01:55:51;20.15;;;7.75;;
7703;SDS011;3894;49.700;10.770;2023-03-03T02:01:34;19.90;;;7.60;;
7703;SDS011;3894;49.700;10.770;2023-03-03T02:04:27;19.90;;;6.85;;
7703;SDS011;3894;49.700;10.770;2023-03-03T02:07:31;17.35;;;7.20;;
7703;SDS011;3894;49.700;10.770;2023-03-03T02:12:58;19.42;;;6.65;;
7703;SDS011;3894;49.700;10.770;2023-03-03T02:15:40;18.42;;;7.72;;
7703;SDS011;3894;49.700;10.770;2023-03-03T02:21:08;20.40;;;8.15;;
7703;SDS011;3894;49.700;10.770;2023-03-03T02:27:40;18.50;;;6.72;;
7703;SDS011;3894;49.700;10.770;2023-03-03T02:33:13;18.38;;;7.60;;
7703;SDS011;3894;49.700;10.770;2023-03-03T02:36:11;18.77;;;7.68;;
7703;SDS011;3894;49.700;10.770;2023-03-03T02:42:07;21.52;;;7.95;;
7703;SDS011;3894;49.700;10.770;2023-03-03T02:44:39;20.65;;;8.05;;
7703;SDS011;3894;49.700;10.770;2023-03-03T02:47:14;22.60;;;7.53;;
7703;SDS011;3894;49.700;10.770;2023-03-03T02:49:43;25.27;;;9.23;;
7703;SDS011;3894;49.700;10.770;2023-03-03T02:52:09;28.73;;;9.68;;
7703;SDS011;3894;49.700;10.770;2023-03-03T02:54:41;29.15;;;9.57;;
7703;SDS011;3894;49.700;10.770;2023-03-03T02:57:09;26.92;;;10.02;;
7703;SDS011;3894;49.700;10.770;2023-03-03T02:59:35;25.83;;;8.88;;
7703;SDS011;3894;49.700;10.770;2023-03-03T03:02:01;25.13;;;9.82;;
7703;SDS011;3894;49.700;10.770;2023-03-03T03:04:39;28.27;;;10.73;;
7703;SDS011;3894;49.700;10.770;2023-03-03T03:07:05;20.05;;;8.90;;
7703;SDS011;3894;49.700;10.770;2023-03-03T03:09:33;24.45;;;10.25;;
7703;SDS011;3894;49.700;10.770;2023-03-03T03:12:02;20.58;;;8.80;;
7703;SDS011;3894;49.700;10.770;2023-03-03T03:14:30;21.65;;;8.10;;
7703;SDS011;3894;49.700;10.770;2023-03-03T03:17:06;25.42;;;8.65;;
7703;SDS011;3894;49.700;10.770;2023-03-03T03:19:31;23.45;;;8.32;;
7703;SDS011;3894;49.700;10.770;2023-03-03T03:22:00;24.65;;;8.82;;
7703;SDS011;3894;49.700;10.770;2023-03-03T03:24:26;24.70;;;8.32;;
7703;SDS011;3894;49.700;10.770;2023-03-03T03:26:54;22.33;;;9.15;;
7703;SDS011;3894;49.700;10.770;2023-03-03T03:29:20;26.60;;;9.35;;
7703;SDS011;3894;49.700;10.770;2023-03-03T03:34:16;24.90;;;8.45;;
7703;SDS011;3894;49.700;10.770;2023-03-03T03:36:42;22.00;;;9.00;;
7703;SDS011;3894;49.700;10.770;2023-03-03T03:39:07;25.35;;;9.15;;
7703;SDS011;3894;49.700;10.770;2023-03-03T03:41:42;20.55;;;7.65;;
7703;SDS011;3894;49.700;10.770;2023-03-03T03:46:36;23.70;;;7.43;;
7703;SDS011;3894;49.700;10.770;2023-03-03T03:49:05;24.40;;;8.77;;
7703;SDS011;3894;49.700;10.770;2023-03-03T03:51:31;23.90;;;10.23;;
7703;SDS011;3894;49.700;10.770;2023-03-03T03:53:57;22.85;;;9.82;;
7703;SDS011;3894;49.700;10.770;2023-03-03T03:56:23;24.52;;;9.32;;
7703;SDS011;3894;49.700;10.770;2023-03-03T03:58:49;25.50;;;9.05;;
7703;SDS011;3894;49.700;10.770;2023-03-03T04:01:14;27.38;;;11.38;;
7703;SDS011;3894;49.700;10.770;2023-03-03T04:03:43;24.60;;;10.10;;
7703;SDS011;3894;49.700;10.770;2023-03-03T04:06:08;28.02;;;9.98;;
7703;SDS011;3894;49.700;10.770;2023-03-03T04:08:34;28.92;;;10.43;;
7703;SDS011;3894;49.700;10.770;2023-03-03T04:10:59;29.30;;;11.02;;
7703;SDS011;3894;49.700;10.770;2023-03-03T04:13:28;28.80;;;11.27;;
7703;SDS011;3894;49.700;10.770;2023-03-03T04:15:55;24.73;;;9.80;;
7703;SDS011;3894;49.700;10.770;2023-03-03T04:18:21;28.40;;;10.70;;
7703;SDS011;3894;49.700;10.770;2023-03-03T04:20:47;23.45;;;8.85;;
7703;SDS011;3894;49.700;10.770;2023-03-03T04:23:16;25.02;;;9.65;;
7703;SDS011;3894;49.700;10.770;2023-03-03T04:25:44;26.90;;;9.13;;
7703;SDS011;3894;49.700;10.770;2023-03-03T04:28:14;23.88;;;9.13;;
7703;SDS011;3894;49.700;10.770;2023-03-03T04:30:40;23.63;;;7.63;;
7703;SDS011;3894;49.700;10.770;2023-03-03T04:33:06;22.05;;;9.75;;
7703;SDS011;3894;49.700;10.770;2023-03-03T04:35:35;28.17;;;10.77;;
7703;SDS011;3894;49.700;10.770;2023-03-03T04:38:00;27.05;;;8.90;;
7703;SDS011;3894;49.700;10.770;2023-03-03T04:40:29;24.50;;;10.90;;
7703;SDS011;3894;49.700;10.770;2023-03-03T04:42:58;26.90;;;10.95;;
7703;SDS011;3894;49.700;10.770;2023-03-03T04:45:26;31.67;;;11.50;;
7703;SDS011;3894;49.700;10.770;2023-03-03T04:47:52;29.77;;;10.35;;
7703;SDS011;3894;49.700;10.770;2023-03-03T04:50:17;27.25;;;11.70;;
7703;SDS011;3894;49.700;10.770;2023-03-03T04:52:43;30.33;;;10.63;;
7703;SDS011;3894;49.700;10.770;2023-03-03T04:55:09;23.90;;;9.88;;
7703;SDS011;3894;49.700;10.770;2023-03-03T04:57:35;24.27;;;8.75;;
7703;SDS011;3894;49.700;10.770;2023-03-03T05:00:01;27.48;;;10.23;;
7703;SDS011;3894;49.700;10.770;2023-03-03T05:02:29;28.83;;;9.82;;
7703;SDS011;3894;49.700;10.770;2023-03-03T05:04:57;30.17;;;11.10;;
7703;SDS011;3894;49.700;10.770;2023-03-03T05:07:23;24.20;;;9.60;;
7703;SDS011;3894;49.700;10.770;2023-03-03T05:09:51;23.85;;;8.77;;
7703;SDS011;3894;49.700;10.770;2023-03-03T05:12:16;25.48;;;9.27;;
7703;SDS011;3894;49.700;10.770;2023-03-03T05:14:42;20.67;;;8.57;;
7703;SDS011;3894;49.700;10.770;2023-03-03T05:17:08;25.08;;;8.82;;
7703;SDS011;3894;49.700;10.770;2023-03-03T05:19:33;26.02;;;8.35;;
7703;SDS011;3894;49.700;10.770;2023-03-03T05:21:59;21.92;;;8.88;;
7703;SDS011;3894;49.700;10.770;2023-03-03T05:24:28;22.73;;;9.15;;
7703;SDS011;3894;49.700;10.770;2023-03-03T05:26:54;32.35;;;12.23;;
7703;SDS011;3894;49.700;10.770;2023-03-03T05:29:23;25.08;;;10.50;;
7703;SDS011;3894;49.700;10.770;2023-03-03T05:31:48;29.50;;;11.02;;
7703;SDS011;3894;49.700;10.770;2023-03-03T05:34:14;28.75;;;11.60;;
7703;SDS011;3894;49.700;10.770;2023-03-03T05:36:40;30.70;;;11.55;;
7703;SDS011;3894;49.700;10.770;2023-03-03T05:39:08;28.60;;;10.63;;
7703;SDS011;3894;49.700;10.770;2023-03-03T05:41:33;29.02;;;11.27;;
7703;SDS011;3894;49.700;10.770;2023-03-03T05:44:00;29.80;;;10.73;;
7703;SDS011;3894;49.700;10.770;2023-03-03T05:46:30;31.92;;;11.65;;
7703;SDS011;3894;49.700;10.770;2023-03-03T05:49:01;27.08;;;10.05;;
7703;SDS011;3894;49.700;10.770;2023-03-03T05:51:27;29.58;;;10.00;;
7703;SDS011;3894;49.700;10.770;2023-03-03T05:53:53;30.13;;;11.52;;
7703;SDS011;3894;49.700;10.770;2023-03-03T05:56:18;26.83;;;10.43;;
7703;SDS011;3894;49.700;10.770;2023-03-03T05:58:44;29.08;;;11.68;;
7703;SDS011;3894;49.700;10.770;2023-03-03T06:01:10;25.35;;;10.60;;
7703;SDS011;3894;49.700;10.770;2023-03-03T06:03:36;28.10;;;10.55;;
7703;SDS011;3894;49.700;10.770;2023-03-03T06:06:04;32.83;;;11.55;;
7703;SDS011;3894;49.700;10.770;2023-03-03T06:08:30;27.25;;;10.23;;
7703;SDS011;3894;49.700;10.770;2023-03-03T06:11:02;29.88;;;11.32;;
7703;SDS011;3894;49.700;10.770;2023-03-03T06:13:27;27.95;;;10.20;;
7703;SDS011;3894;49.700;10.770;2023-03-03T06:15:54;28.55;;;12.38;;
7703;SDS011;3894;49.700;10.770;2023-03-03T06:18:19;26.35;;;10.75;;
7703;SDS011;3894;49.700;10.770;2023-03-03T06:23:17;29.73;;;10.38;;
7703;SDS011;3894;49.700;10.770;2023-03-03T06:25:42;31.52;;;10.45;;
7703;SDS011;3894;49.700;10.770;2023-03-03T06:28:08;30.38;;;12.38;;
7703;SDS011;3894;49.700;10.770;2023-03-03T06:30:37;31.95;;;11.80;;
7703;SDS011;3894;49.700;10.770;2023-03-03T06:33:02;38.38;;;12.95;;
7703;SDS011;3894;49.700;10.770;2023-03-03T06:35:28;31.73;;;11.88;;
7703;SDS011;3894;49.700;10.770;2023-03-03T06:37:59;28.33;;;11.15;;
7703;SDS011;3894;49.700;10.770;2023-03-03T06:40:25;25.95;;;10.30;;
7703;SDS011;3894;49.700;10.770;2023-03-03T06:42:51;28.98;;;10.38;;
7703;SDS011;3894;49.700;10.770;2023-03-03T06:45:16;25.98;;;9.55;;
7703;SDS011;3894;49.700;10.770;2023-03-03T06:47:42;27.42;;;10.32;;
7703;SDS011;3894;49.700;10.770;2023-03-03T06:50:09;26.60;;;10.27;;
7703;SDS011;3894;49.700;10.770;2023-03-03T06:55:08;27.98;;;10.48;;
7703;SDS011;3894;49.700;10.770;2023-03-03T06:57:36;32.60;;;13.82;;
7703;SDS011;3894;49.700;10.770;2023-03-03T07:00:23;27.30;;;10.80;;
7703;SDS011;3894;49.700;10.770;2023-03-03T07:02:53;23.92;;;11.43;;
7703;SDS011;3894;49.700;10.770;2023-03-03T07:05:23;25.00;;;10.98;;
7703;SDS011;3894;49.700;10.770;2023-03-03T07:07:52;26.83;;;11.15;;
7703;SDS011;3894;49.700;10.770;2023-03-03T07:10:22;32.33;;;11.68;;
7703;SDS011;3894;49.700;10.770;2023-03-03T07:13:01;29.92;;;12.82;;
7703;SDS011;3894;49.700;10.770;2023-03-03T07:15:40;35.03;;;13.38;;
7703;SDS011;3894;49.700;10.770;2023-03-03T07:18:10;34.40;;;15.68;;
7703;SDS011;3894;49.700;10.770;2023-03-03T07:21:18;42.97;;;17.40;;
7703;SDS011;3894;49.700;10.770;2023-03-03T07:23:45;35.25;;;14.23;;
7703;SDS011;3894;49.700;10.770;2023-03-03T07:26:19;31.63;;;12.10;;
7703;SDS011;3894;49.700;10.770;2023-03-03T07:28:53;36.15;;;12.70;;
7703;SDS011;3894;49.700;10.770;2023-03-03T07:31:24;32.67;;;11.98;;
7703;SDS011;3894;49.700;10.770;2023-03-03T07:33:51;38.22;;;13.55;;
7703;SDS011;3894;49.700;10.770;2023-03-03T07:36:26;40.47;;;16.00;;
7703;SDS011;3894;49.700;10.770;2023-03-03T07:38:59;40.05;;;13.63;;
7703;SDS011;3894;49.700;10.770;2023-03-03T07:41:29;36.45;;;12.88;;
7703;SDS011;3894;49.700;10.770;2023-03-03T07:44:02;34.80;;;13.00;;
7703;SDS011;3894;49.700;10.770;2023-03-03T07:51:55;33.90;;;13.13;;
7703;SDS011;3894;49.700;10.770;2023-03-03T07:54:38;34.13;;;11.90;;
7703;SDS011;3894;49.700;10.770;2023-03-03T07:59:36;31.85;;;11.98;;
7703;SDS011;3894;49.700;10.770;2023-03-03T08:02:04;31.63;;;11.80;;
7703;SDS011;3894;49.700;10.770;2023-03-03T08:04:50;33.35;;;12.05;;
7703;SDS011;3894;49.700;10.770;2023-03-03T08:07:17;34.20;;;12.27;;
7703;SDS011;3894;49.700;10.770;2023-03-03T08:12:40;34.30;;;11.45;;
7703;SDS011;3894;49.700;10.770;2023-03-03T08:15:24;34.28;;;11.77;;
7703;SDS011;3894;49.700;10.770;2023-03-03T08:17:55;32.00;;;11.75;;
7703;SDS011;3894;49.700;10.770;2023-03-03T08:22:59;34.00;;;11.82;;
7703;SDS011;3894;49.700;10.770;2023-03-03T08:25:25;35.42;;;12.38;;
7703;SDS011;3894;49.700;10.770;2023-03-03T08:27:50;34.92;;;11.18;;
7703;SDS011;3894;49.700;10.770;2023-03-03T08:30:16;28.73;;;11.48;;
7703;SDS011;3894;49.700;10.770;2023-03-03T08:32:42;30.30;;;12.93;;
7703;SDS011;3894;49.700;10.770;2023-03-03T08:35:10;49.45;;;17.75;;
7703;SDS011;3894;49.700;10.770;2023-03-03T08:37:36;34.60;;;11.93;;
7703;SDS011;3894;49.700;10.770;2023-03-03T08:40:04;33.50;;;11.75;;
7703;SDS011;3894;49.700;10.770;2023-03-03T08:42:33;33.03;;;11.85;;
7703;SDS011;3894;49.700;10.770;2023-03-03T08:44:58;29.45;;;11.27;;
7703;SDS011;3894;49.700;10.770;2023-03-03T08:47:24;32.67;;;12.85;;
7703;SDS011;3894;49.700;10.770;2023-03-03T08:49:50;33.92;;;11.55;;
7703;SDS011;3894;49.700;10.770;2023-03-03T08:52:21;34.78;;;11.63;;
7703;SDS011;3894;49.700;10.770;2023-03-03T08:54:46;28.15;;;11.45;;
7703;SDS011;3894;49.700;10.770;2023-03-03T08:57:12;29.85;;;10.95;;
7703;SDS011;3894;49.700;10.770;2023-03-03T08:59:38;35.50;;;12.48;;
7703;SDS011;3894;49.700;10.770;2023-03-03T09:02:06;31.98;;;13.32;;
7703;SDS011;3894;49.700;10.770;2023-03-03T09:04:35;26.55;;;9.65;;
7703;SDS011;3894;49.700;10.770;2023-03-03T09:07:00;29.67;;;10.50;;
7703;SDS011;3894;49.700;10.770;2023-03-03T09:09:26;31.95;;;12.48;;
7703;SDS011;3894;49.700;10.770;2023-03-03T09:11:53;32.55;;;12.30;;
7703;SDS011;3894;49.700;10.770;2023-03-03T09:14:24;31.52;;;11.45;;
7703;SDS011;3894;49.700;10.770;2023-03-03T09:16:55;33.55;;;11.90;;
7703;SDS011;3894;49.700;10.770;2023-03-03T09:19:23;30.10;;;11.15;;
7703;SDS011;3894;49.700;10.770;2023-03-03T09:21:55;29.65;;;11.73;;
7703;SDS011;3894;49.700;10.770;2023-03-03T09:26:50;26.92;;;11.27;;
7703;SDS011;3894;49.700;10.770;2023-03-03T09:31:48;29.05;;;11.20;;
7703;SDS011;3894;49.700;10.770;2023-03-03T09:34:26;27.23;;;10.70;;
7703;SDS011;3894;49.700;10.770;2023-03-03T09:39:54;25.63;;;10.63;;
7703;SDS011;3894;49.700;10.770;2023-03-03T09:48:07;29.88;;;11.25;;
7703;SDS011;3894;49.700;10.770;2023-03-03T09:57:25;25.42;;;10.57;;
7703;SDS011;3894;49.700;10.770;2023-03-03T10:03:10;26.58;;;10.65;;
7703;SDS011;3894;49.700;10.770;2023-03-03T10:14:50;25.98;;;9.23;;
7703;SDS011;3894;49.700;10.770;2023-03-03T10:17:51;24.95;;;10.63;;
7703;SDS011;3894;49.700;10.770;2023-03-03T10:52:25;21.38;;;9.13;;
7703;SDS011;3894;49.700;10.770;2023-03-03T11:01:48;21.58;;;7.80;;
7703;SDS011;3894;49.700;10.770;2023-03-03T11:08:24;19.88;;;8.55;;
7703;SDS011;3894;49.700;10.770;2023-03-03T11:18:00;22.70;;;7.50;;
7703;SDS011;3894;49.700;10.770;2023-03-03T14:16:03;15.23;;;5.72;;
7703;SDS011;3894;49.700;10.770;2023-03-03T14:18:55;17.52;;;9.45;;
7703;SDS011;3894;49.700;10.770;2023-03-03T14:21:39;14.25;;;4.80;;
7703;SDS011;3894;49.700;10.770;2023-03-03T14:24:26;15.68;;;6.00;;
7703;SDS011;3894;49.700;10.770;2023-03-03T14:27:22;12.23;;;4.15;;
7703;SDS011;3894;49.700;10.770;2023-03-03T14:29:55;11.32;;;4.15;;
7703;SDS011;3894;49.700;10.770;2023-03-03T14:32:57;12.25;;;3.72;;
7703;SDS011;3894;49.700;10.770;2023-03-03T14:41:04;11.70;;;4.05;;
7703;SDS011;3894;49.700;10.770;2023-03-03T14:47:28;8.27;;;3.75;;
7703;SDS011;3894;49.700;10.770;2023-03-03T14:50:28;12.82;;;3.72;;
7703;SDS011;3894;49.700;10.770;2023-03-03T14:53:37;9.98;;;3.40;;
7703;SDS011;3894;49.700;10.770;2023-03-03T15:02:09;10.23;;;3.25;;
7703;SDS011;3894;49.700;10.770;2023-03-03T15:08:09;10.48;;;3.72;;
7703;SDS011;3894;49.700;10.770;2023-03-03T15:10:50;8.80;;;3.30;;
7703;SDS011;3894;49.700;10.770;2023-03-03T15:13:44;7.68;;;2.42;;
7703;SDS011;3894;49.700;10.770;2023-03-03T15:16:19;12.48;;;3.50;;
7703;SDS011;3894;49.700;10.770;2023-03-03T15:19:09;8.80;;;3.05;;
7703;SDS011;3894;49.700;10.770;2023-03-03T15:24:59;9.15;;;3.22;;
7703;SDS011;3894;49.700;10.770;2023-03-03T15:27:48;9.93;;;3.22;;
7703;SDS011;3894;49.700;10.770;2023-03-03T15:33:44;8.38;;;2.97;;
7703;SDS011;3894;49.700;10.770;2023-03-03T15:36:38;7.93;;;2.42;;
7703;SDS011;3894;49.700;10.770;2023-03-03T15:42:40;10.07;;;3.03;;
7703;SDS011;3894;49.700;10.770;2023-03-03T15:54:05;8.13;;;3.03;;
7703;SDS011;3894;49.700;10.770;2023-03-03T20:37:19;22.45;;;7.90;;
7703;SDS011;3894;49.700;10.770;2023-03-03T20:45:36;15.00;;;6.88;;
7703;SDS011;3894;49.700;10.770;2023-03-03T20:48:32;16.70;;;7.13;;
7703;SDS011;3894;49.700;10.770;2023-03-03T20:51:18;20.42;;;7.60;;
7703;SDS011;3894;49.700;10.770;2023-03-03T20:53:51;15.70;;;7.63;;
7703;SDS011;3894;49.700;10.770;2023-03-03T20:56:38;22.60;;;8.00;;
7703;SDS011;3894;49.700;10.770;2023-03-03T20:59:34;23.30;;;9.55;;
7703;SDS011;3894;49.700;10.770;2023-03-03T21:05:31;24.30;;;10.15;;
7703;SDS011;3894;49.700;10.770;2023-03-03T21:08:04;24.58;;;11.20;;
7703;SDS011;3894;49.700;10.770;2023-03-03T21:10:37;18.20;;;8.10;;
7703;SDS011;3894;49.700;10.770;2023-03-03T21:16:08;16.92;;;9.40;;
7703;SDS011;3894;49.700;10.770;2023-03-03T21:21:58;23.00;;;8.43;;
7703;SDS011;3894;49.700;10.770;2023-03-03T21:27:32;38.08;;;22.90;;
7703;SDS011;3894;49.700;10.770;2023-03-03T21:32:45;27.80;;;12.82;;
7703;SDS011;3894;49.700;10.770;2023-03-03T21:35:23;14.60;;;6.90;;
7703;SDS011;3894;49.700;10.770;2023-03-03T21:37:55;21.00;;;9.10;;
7703;SDS011;3894;49.700;10.770;2023-03-03T21:40:28;14.95;;;6.53;;
7703;SDS011;3894;49.700;10.770;2023-03-03T21:42:58;13.65;;;5.85;;
7703;SDS011;3894;49.700;10.770;2023-03-03T21:45:41;15.80;;;5.95;;
7703;SDS011;3894;49.700;10.770;2023-03-03T21:48:08;12.27;;;5.45;;
7703;SDS011;3894;49.700;10.770;2023-03-03T21:50:38;13.95;;;4.93;;
7703;SDS011;3894;49.700;10.770;2023-03-03T21:53:19;12.85;;;5.40;;
7703;SDS011;3894;49.700;10.770;2023-03-03T21:55:46;24.15;;;10.27;;
7703;SDS011;3894;49.700;10.770;2023-03-03T21:58:14;17.58;;;5.55;;
7703;SDS011;3894;49.700;10.770;2023-03-03T22:00:42;14.70;;;5.95;;
7703;SDS011;3894;49.700;10.770;2023-03-03T22:03:21;14.55;;;6.30;;
7703;SDS011;3894;49.700;10.770;2023-03-03T22:05:53;17.60;;;6.97;;
7703;SDS011;3894;49.700;10.770;2023-03-03T22:08:34;15.57;;;6.20;;
7703;SDS011;3894;49.700;10.770;2023-03-03T22:11:04;11.48;;;4.20;;
7703;SDS011;3894;49.700;10.770;2023-03-03T22:13:33;11.73;;;4.95;;
7703;SDS011;3894;49.700;10.770;2023-03-03T22:16:10;12.60;;;4.13;;
7703;SDS011;3894;49.700;10.770;2023-03-03T22:18:50;11.30;;;4.70;;
7703;SDS011;3894;49.700;10.770;2023-03-03T22:23:51;10.88;;;4.20;;
7703;SDS011;3894;49.700;10.770;2023-03-03T22:26:25;12.00;;;4.35;;
7703;SDS011;3894;49.700;10.770;2023-03-03T22:28:56;13.68;;;4.70;;
7703;SDS011;3894;49.700;10.770;2023-03-03T22:31:31;13.80;;;4.50;;
7703;SDS011;3894;49.700;10.770;2023-03-03T22:34:05;13.05;;;4.18;;
7703;SDS011;3894;49.700;10.770;2023-03-03T22:36:35;15.32;;;4.35;;
7703;SDS011;3894;49.700;10.770;2023-03-03T22:39:06;15.82;;;4.55;;
7703;SDS011;3894;49.700;10.770;2023-03-03T22:41:35;14.35;;;4.90;;
7703;SDS011;3894;49.700;10.770;2023-03-03T22:44:23;11.13;;;3.90;;
7703;SDS011;3894;49.700;10.770;2023-03-03T22:46:54;14.77;;;4.70;;
7703;SDS011;3894;49.700;10.770;2023-03-03T22:51:52;15.73;;;5.18;;
7703;SDS011;3894;49.700;10.770;2023-03-03T22:54:25;14.07;;;5.57;;
7703;SDS011;3894;49.700;10.770;2023-03-03T22:56:54;17.60;;;5.57;;
7703;SDS011;3894;49.700;10.770;2023-03-03T22:59:23;20.30;;;6.28;;
7703;SDS011;3894;49.700;10.770;2023-03-03T23:01:53;15.73;;;5.97;;
7703;SDS011;3894;49.700;10.770;2023-03-03T23:04:22;20.48;;;6.43;;
7703;SDS011;3894;49.700;10.770;2023-03-03T23:06:53;21.42;;;6.53;;
7703;SDS011;3894;49.700;10.770;2023-03-03T23:09:30;22.65;;;7.47;;
7703;SDS011;3894;49.700;10.770;2023-03-03T23:12:22;32.63;;;10.13;;
7703;SDS011;3894;49.700;10.770;2023-03-03T23:14:55;34.58;;;9.07;;
7703;SDS011;3894;49.700;10.770;2023-03-03T23:17:30;27.23;;;9.38;;
7703;SDS011;3894;49.700;10.770;2023-03-03T23:20:03;31.65;;;9.05;;
7703;SDS011;3894;49.700;10.770;2023-03-03T23:22:41;21.10;;;7.18;;
7703;SDS011;3894;49.700;10.770;2023-03-03T23:25:14;14.60;;;5.07;;
7703;SDS011;3894;49.700;10.770;2023-03-03T23:28:00;16.05;;;5.22;;
7703;SDS011;3894;49.700;10.770;2023-03-03T23:30:43;19.75;;;5.18;;
7703;SDS011;3894;49.700;10.770;2023-03-03T23:33:11;15.60;;;5.35;;
7703;SDS011;3894;49.700;10.770;2023-03-03T23:35:40;15.55;;;4.97;;
7703;SDS011;3894;49.700;10.770;2023-03-03T23:38:06;12.88;;;4.95;;
7703;SDS011;3894;49.700;10.770;2023-03-03T23:40:32;16.38;;;5.70;;
7703;SDS011;3894;49.700;10.770;2023-03-03T23:43:03;29.23;;;8.70;;
7703;SDS011;3894;49.700;10.770;2023-03-03T23:45:34;30.98;;;8.90;;
7703;SDS011;3894;49.700;10.770;2023-03-03T23:48:05;32.97;;;9.32;;
7703;SDS011;3894;49.700;10.770;2023-03-03T23:50:34;29.80;;;7.97;;
7703;SDS011;3894;49.700;10.770;2023-03-03T23:53:04;18.70;;;6.43;;
7703;SDS011;3894;49.700;10.770;2023-03-03T23:55:36;22.95;;;8.43;;
7703;SDS011;3894;49.700;10.770;2023-03-03T23:58:09;21.88;;;7.47;;
